• Join FlightAware (Why Join?)
  • Login
  • US Flag 
10:07PM EDT


 

Airport Tracker/Info


-or-


 

Live Flight TrackerFlight Track Log ✈ UAL5887 ✈ 28-Apr-2013 ✈ KORD - CYOW

Flight Track Log - Related Links

Times and Time Zones

All times are in EDT time to prevent confusion due to time zone crossing. See the UAL5887 flight status page for this flight to view local times or setup timezone preferences in your user account.

Time Position Orientation Groundspeed Altitude Reporting Facility
EDT Latitude Longitude Course Direction KTS MPH feet Rate Location/Type
10:14AM 41.9333 -87.9167 81° East 170 196 2,700  Level Chicago TRACON
10:16AM 41.9567 -87.7081 81° East 259 298 7,400 1,920 Climbing Chicago Center
10:17AM 41.9975 -87.6214 58° Northeast 275 316 9,500 2,040 Climbing Chicago Center
10:18AM 42.0428 -87.5314 56° Northeast 287 330 11,600 1,560 Climbing Chicago Center
10:19AM 42.0919 -87.4367 55° Northeast 301 346 12,800 1,020 Climbing Chicago Center
10:20AM 42.1222 -87.3122 72° East 352 405 13,800 1,020 Climbing Chicago Center
10:21AM 42.1350 -87.1783 83° East 363 418 15,000 1,200 Climbing Chicago Center
10:22AM 42.1464 -87.0422 84° East 366 421 16,400 1,380 Climbing Chicago Center
10:23AM 42.1597 -86.8764 84° East 371 427 17,900 1,260 Climbing Chicago Center
10:24AM 42.1719 -86.7358 83° East 376 433 19,000 960 Climbing Chicago Center
10:26AM 42.1828 -86.6117 83° East 388 447 19,900 1,020 Climbing Chicago Center
10:27AM 42.1964 -86.4350 84° East 394 453 21,100 1,080 Climbing Chicago Center
10:28AM 42.2089 -86.2847 84° East 400 460 22,200 1,020 Climbing Chicago Center
10:29AM 42.2206 -86.1333 84° East 405 466 23,300 1,140 Climbing Chicago Center
10:30AM 42.2319 -85.9822 84° East 404 465 24,600 780 Climbing Chicago Center
10:31AM 42.2444 -85.8139 84° East 406 467 25,000 180 Climbing Chicago Center
10:32AM 42.2558 -85.6539 84° East 419 482 25,000  Level Chicago Center
10:33AM 42.2683 -85.4889 84° East 436 502 25,000  Level Chicago Center
10:34AM 42.2797 -85.3203 85° East 447 514 25,000  Level Chicago Center
10:35AM 42.2922 -85.1525 84° East 451 519 25,000  Level Chicago Center
10:36AM 42.3000 -84.9842 86° East 452 520 25,000  Level Chicago Center
10:37AM 42.2958 -84.8192 92° East 446 513 25,000  Level Chicago Center
10:38AM 42.3347 -84.6225 75° East 451 519 25,000  Level Chicago Center
10:39AM 42.3717 -84.4611 73° East 450 518 25,000  Level Chicago Center
10:40AM 42.4019 -84.3064 75° East 446 513 25,000  Level Cleveland Center
10:41AM 42.4383 -84.1425 73° East 451 519 25,000  Level Cleveland Center
10:42AM 42.4725 -83.9811 74° East 451 519 25,000  Level Cleveland Center
10:43AM 42.5086 -83.8139 74° East 451 519 25,000  Level Cleveland Center
10:44AM 42.5422 -83.6494 74° East 451 519 25,000  Level Cleveland Center
10:45AM 42.5778 -83.4847 74° East 451 519 25,000  Level Cleveland Center
10:46AM 42.6133 -83.3142 74° East 451 519 25,000  Level Cleveland Center
10:47AM 42.6464 -83.1492 75° East 451 519 25,000  Level Cleveland Center
10:48AM 42.6811 -82.9783 74° East 456 525 25,000  Level Cleveland Center
10:49AM 42.7158 -82.8072 75° East 456 525 25,000  Level Cleveland Center
10:50AM 42.7503 -82.6417 74° East 456 525 25,000  Level Cleveland Center
10:51AM 42.7844 -82.4672 75° East 456 525 25,000  Level Cleveland Center
10:52AM 42.8164 -82.2983 75° East 456 525 25,000  Level Cleveland Center
10:53AM 42.8522 -82.1239 74° East 456 525 25,000  Level Cleveland Center
10:55AM 42.9000 -81.8000 79° East 480 552 25,000  Level Toronto Center
10:56AM 42.9333 -81.6333 75° East 480 552 25,000  Level Toronto Center
10:57AM 42.9667 -81.4500 76° East 480 552 25,000  Level Toronto Center
10:58AM 43.0000 -81.2667 76° East 480 552 25,000  Level Toronto Center
10:59AM 43.0333 -81.1000 75° East 480 552 25,000  Level Toronto Center
11:00AM 43.1000 -80.9333 61° Northeast 480 552 25,000  Level Toronto Center
11:01AM 43.1833 -80.7833 53° Northeast 480 552 25,000  Level Toronto Center
11:02AM 43.2500 -80.6167 61° Northeast 480 552 25,000  Level Toronto Center
11:03AM 43.3167 -80.4500 61° Northeast 470 541 25,000  Level Toronto Center
11:04AM 43.3667 -80.3167 63° Northeast 470 541 25,000  Level Toronto Center
11:05AM 43.4333 -80.1667 58° Northeast 470 541 25,000  Level Toronto Center
11:06AM 43.5000 -80.0000 61° Northeast 470 541 25,000  Level Toronto Center
11:07AM 43.5500 -79.8333 67° East 460 529 25,000  Level Toronto Center
11:08AM 43.6167 -79.7000 55° Northeast 460 529 25,000  Level Toronto Center
11:09AM 43.6667 -79.5167 69° East 470 541 25,000  Level Toronto Center
11:10AM 43.7167 -79.3500 67° East 470 541 25,000  Level Toronto Center
11:11AM 43.7667 -79.2000 65° Northeast 470 541 25,000  Level Toronto Center
11:12AM 43.8167 -79.0333 67° East 470 541 25,000  Level Toronto Center
11:13AM 43.8833 -78.8667 61° Northeast 470 541 25,000  Level Toronto Center
11:14AM 43.9500 -78.7000 61° Northeast 470 541 25,000  Level Toronto Center
11:15AM 44.0000 -78.5667 62° Northeast 470 541 25,000  Level Toronto Center
11:16AM 44.0667 -78.4000 61° Northeast 470 541 25,000  Level Toronto Center
11:17AM 44.1500 -78.2667 49° Northeast 470 541 25,000  Level Toronto Center
11:18AM 44.2333 -78.1167 52° Northeast 470 541 25,000 -300 Level Toronto Center
11:19AM 44.3000 -77.9500 61° Northeast 470 541 24,400 -540 Descending Toronto Center
11:20AM 44.3667 -77.7833 61° Northeast 470 541 24,000 -300 Descending Toronto Center
11:20AM 44.3833 -77.7167 71° East 460 529 24,000  Level Montreal Center
11:21AM 44.4500 -77.5833 55° Northeast 460 529 24,000  Level Montreal Center
11:22AM 44.4667 -77.4667 79° East 460 529 24,000  Level Toronto Center
11:23AM 44.5167 -77.3000 67° East 470 541 24,000 -660 Level Toronto Center
11:23AM 44.5500 -77.2333 55° Northeast 460 529 23,000 -2,400 Descending Montreal Center
11:24AM 44.6000 -77.0667 67° East 450 518 20,400 -2,460 Descending Montreal Center
11:25AM 44.6500 -76.9333 62° Northeast 430 495 18,100 -2,340 Descending Montreal Center
11:26AM 44.7167 -76.8000 55° Northeast 420 483 15,800 -2,400 Descending Montreal Center
11:27AM 44.7833 -76.6833 51° Northeast 410 472 13,300 -2,700 Descending Montreal Center
11:28AM 44.8000 -76.6000 74° East 400 460 11,900 -1,740 Descending Toronto Center
11:29AM 44.8667 -76.4833 51° Northeast 350 403 10,800 -1,320 Descending Toronto Center
11:29AM 44.8833 -76.4667 35° Northeast 310 357 9,900 -1,740 Descending Montreal Center
11:30AM 44.9167 -76.3833 61° Northeast 290 334 9,100 -1,500 Descending Toronto Center
11:30AM 44.9333 -76.3667 35° Northeast 280 322 8,400 -1,320 Descending Montreal Center
11:31AM 44.9833 -76.3000 43° Northeast 280 322 7,100 -1,200 Descending Montreal Center
11:32AM 45.0333 -76.2000 55° Northeast 280 322 6,000 -1,080 Descending Montreal Center
11:33AM 45.0667 -76.1167 60° Northeast 270 311 5,000 -1,020 Descending Montreal Center
11:34AM 45.1167 -76.0333 50° Northeast 270 311 4,000 -960 Descending Montreal Center
11:35AM 45.1667 -75.9667 43° Northeast 250 288 3,100 -540 Descending Montreal Center
11:36AM 45.2000 -75.8667 65° Northeast 220 253 3,000 -180 Descending Montreal Center
11:37AM 45.2333 -75.8000 55° Northeast 220 253 2,800 -660 Descending Montreal Center
11:38AM 45.2667 -75.7500 47° Northeast 190 219 1,700 -960 Descending Montreal Center
11:39AM 45.2833 -75.7000 65° Northeast 130 150 900 -660 Descending Montreal Center
11:40AM 45.3000 -75.6667 55° Northeast 130 150 400 -540 Descending Montreal Center